DGFRA EDDN-EDDC
Flight info
| Callsign | DGFRA |
|---|---|
| Flight time | 1h 3m |
| Altitude | 17000 |
| Route | ERETO1G ERETO Z715 ABKIS Q240 DRN |
| Aircraft | DA42/L-BDGLORVWY/S |
Departure
| Time | 2026-05-08 15:31 |
|---|---|
| Airport | Nuremberg Airport (EDDN) |
Arrival
| Time | 2026-05-08 16:35 |
|---|---|
| Airport | Dresden Airport (EDDC) |
| Time | Latitude | Longitude | Altitude | Speed | Heading |
|---|---|---|---|---|---|
| 2026-05-08 15:02 | 49.49438 | 11.06868 | 1021 ft | 0 kts | 278° |
| 2026-05-08 15:22 | 49.49436 | 11.06866 | 1021 ft | 2 kts | 165° |
| 2026-05-08 15:23 | 49.49479 | 11.06914 | 1021 ft | 12 kts | 7° |
| 2026-05-08 15:23 | 49.49519 | 11.06988 | 1021 ft | 15 kts | 95° |
| 2026-05-08 15:23 | 49.49507 | 11.07185 | 1021 ft | 11 kts | 43° |
| 2026-05-08 15:23 | 49.49592 | 11.07209 | 1020 ft | 17 kts | 7° |
| 2026-05-08 15:24 | 49.49631 | 11.07317 | 1020 ft | 17 kts | 99° |
| 2026-05-08 15:24 | 49.49607 | 11.07553 | 1020 ft | 23 kts | 99° |
| 2026-05-08 15:24 | 49.49592 | 11.07698 | 1021 ft | 15 kts | 102° |
| 2026-05-08 15:24 | 49.49657 | 11.07772 | 1022 ft | 12 kts | 5° |
| 2026-05-08 15:25 | 49.49691 | 11.07753 | 1021 ft | 0 kts | 334° |
| 2026-05-08 15:25 | 49.49710 | 11.07738 | 1021 ft | 8 kts | 334° |
| 2026-05-08 15:25 | 49.49741 | 11.07714 | 1020 ft | 0 kts | 332° |
| 2026-05-08 15:26 | 49.49771 | 11.07691 | 1020 ft | 1 kts | 332° |
| 2026-05-08 15:26 | 49.49787 | 11.07679 | 1020 ft | 3 kts | 333° |
| 2026-05-08 15:26 | 49.49790 | 11.07677 | 1020 ft | 0 kts | 334° |
| 2026-05-08 15:28 | 49.49790 | 11.07676 | 1020 ft | 1 kts | 334° |
| 2026-05-08 15:28 | 49.49844 | 11.07635 | 1020 ft | 14 kts | 334° |
| 2026-05-08 15:28 | 49.49894 | 11.07561 | 1020 ft | 2 kts | 281° |
| 2026-05-08 15:28 | 49.49894 | 11.07559 | 1020 ft | 0 kts | 279° |
| 2026-05-08 15:30 | 49.49900 | 11.07493 | 1020 ft | 31 kts | 278° |
| 2026-05-08 15:30 | 49.49967 | 11.06825 | 1020 ft | 90 kts | 279° |
| 2026-05-08 15:30 | 49.50053 | 11.05754 | 1122 ft | 111 kts | 279° |
| 2026-05-08 15:31 | 49.50099 | 11.04554 | 1345 ft | 110 kts | 284° |
| 2026-05-08 15:31 | 49.50250 | 11.03389 | 1545 ft | 112 kts | 287° |
| 2026-05-08 15:31 | 49.50390 | 11.02218 | 1713 ft | 111 kts | 283° |
| 2026-05-08 15:31 | 49.50518 | 11.01042 | 1915 ft | 112 kts | 282° |
| 2026-05-08 15:32 | 49.50638 | 10.99876 | 2167 ft | 110 kts | 283° |
| 2026-05-08 15:32 | 49.50756 | 10.98700 | 2354 ft | 110 kts | 283° |
| 2026-05-08 15:32 | 49.50873 | 10.97530 | 2584 ft | 111 kts | 282° |
| 2026-05-08 15:32 | 49.50989 | 10.96352 | 2781 ft | 111 kts | 281° |
| 2026-05-08 15:33 | 49.51104 | 10.95172 | 2994 ft | 111 kts | 281° |
| 2026-05-08 15:33 | 49.51202 | 10.94168 | 3150 ft | 113 kts | 282° |
| 2026-05-08 15:33 | 49.51291 | 10.93663 | 3250 ft | 112 kts | 297° |
| 2026-05-08 15:33 | 49.51782 | 10.92779 | 3620 ft | 108 kts | 329° |
| 2026-05-08 15:34 | 49.52493 | 10.92464 | 3956 ft | 108 kts | 0° |
| 2026-05-08 15:34 | 49.53251 | 10.92476 | 4292 ft | 110 kts | 1° |
| 2026-05-08 15:34 | 49.54023 | 10.92500 | 4610 ft | 112 kts | 1° |
| 2026-05-08 15:34 | 49.54810 | 10.92523 | 4930 ft | 114 kts | 1° |
| 2026-05-08 15:35 | 49.55610 | 10.92547 | 5255 ft | 115 kts | 1° |
| 2026-05-08 15:35 | 49.56416 | 10.92570 | 5572 ft | 117 kts | 1° |
| 2026-05-08 15:35 | 49.57230 | 10.92593 | 5910 ft | 117 kts | 1° |
| 2026-05-08 15:35 | 49.58050 | 10.92615 | 6232 ft | 119 kts | 1° |
| 2026-05-08 15:36 | 49.58883 | 10.92637 | 6562 ft | 120 kts | 1° |
| 2026-05-08 15:36 | 49.59723 | 10.92660 | 6878 ft | 121 kts | 0° |
| 2026-05-08 15:36 | 49.60565 | 10.92682 | 7210 ft | 121 kts | 0° |
| 2026-05-08 15:36 | 49.61406 | 10.92706 | 7537 ft | 121 kts | 359° |
| 2026-05-08 15:37 | 49.62250 | 10.92728 | 7854 ft | 121 kts | 359° |
| 2026-05-08 15:37 | 49.63090 | 10.92749 | 8189 ft | 121 kts | 358° |
| 2026-05-08 15:37 | 49.63935 | 10.92770 | 8515 ft | 122 kts | 359° |
| 2026-05-08 15:37 | 49.64781 | 10.92792 | 8855 ft | 122 kts | 357° |
| 2026-05-08 15:38 | 49.65630 | 10.92814 | 9196 ft | 122 kts | 358° |
| 2026-05-08 15:38 | 49.66483 | 10.92835 | 9547 ft | 123 kts | 357° |
| 2026-05-08 15:38 | 49.67339 | 10.92857 | 9896 ft | 123 kts | 358° |
| 2026-05-08 15:38 | 49.68198 | 10.92880 | 10221 ft | 124 kts | 357° |
| 2026-05-08 15:39 | 49.69060 | 10.92902 | 10518 ft | 124 kts | 358° |
| 2026-05-08 15:39 | 49.69927 | 10.92979 | 10816 ft | 127 kts | 9° |
| 2026-05-08 15:39 | 49.70714 | 10.93623 | 11133 ft | 131 kts | 36° |
| 2026-05-08 15:39 | 49.71414 | 10.94535 | 11445 ft | 132 kts | 38° |
| 2026-05-08 15:40 | 49.72115 | 10.95467 | 11762 ft | 133 kts | 38° |
| 2026-05-08 15:40 | 49.72822 | 10.96406 | 12085 ft | 134 kts | 38° |
| 2026-05-08 15:40 | 49.73534 | 10.97350 | 12401 ft | 136 kts | 38° |
| 2026-05-08 15:40 | 49.74253 | 10.98302 | 12719 ft | 136 kts | 38° |
| 2026-05-08 15:41 | 49.74976 | 10.99259 | 13040 ft | 137 kts | 38° |
| 2026-05-08 15:41 | 49.75706 | 11.00225 | 13363 ft | 139 kts | 38° |
| 2026-05-08 15:41 | 49.76430 | 11.01183 | 13687 ft | 139 kts | 38° |
| 2026-05-08 15:41 | 49.77170 | 11.02164 | 13999 ft | 141 kts | 37° |
| 2026-05-08 15:42 | 49.77915 | 11.03151 | 14291 ft | 141 kts | 37° |
| 2026-05-08 15:42 | 49.78661 | 11.04141 | 14585 ft | 142 kts | 37° |
| 2026-05-08 15:42 | 49.79412 | 11.05136 | 14882 ft | 142 kts | 37° |
| 2026-05-08 15:42 | 49.80165 | 11.06135 | 15187 ft | 143 kts | 37° |
| 2026-05-08 15:43 | 49.80921 | 11.07139 | 15487 ft | 144 kts | 37° |
| 2026-05-08 15:43 | 49.81682 | 11.08149 | 15782 ft | 145 kts | 37° |
| 2026-05-08 15:43 | 49.82446 | 11.09164 | 16079 ft | 145 kts | 37° |
| 2026-05-08 15:43 | 49.83215 | 11.10186 | 16365 ft | 146 kts | 36° |
| 2026-05-08 15:44 | 49.83942 | 11.11292 | 16641 ft | 149 kts | 52° |
| 2026-05-08 15:44 | 49.84431 | 11.12723 | 16926 ft | 151 kts | 62° |
| 2026-05-08 15:44 | 49.84893 | 11.14215 | 17029 ft | 165 kts | 62° |
| 2026-05-08 15:44 | 49.85415 | 11.15916 | 17033 ft | 179 kts | 62° |
| 2026-05-08 15:45 | 49.85967 | 11.17706 | 17035 ft | 189 kts | 62° |
| 2026-05-08 15:45 | 49.86551 | 11.19588 | 17031 ft | 197 kts | 62° |
| 2026-05-08 15:45 | 49.87154 | 11.21533 | 17031 ft | 202 kts | 62° |
| 2026-05-08 15:45 | 49.87766 | 11.23511 | 17039 ft | 205 kts | 63° |
| 2026-05-08 15:46 | 49.88386 | 11.25516 | 17035 ft | 207 kts | 63° |
| 2026-05-08 15:46 | 49.89010 | 11.27535 | 17036 ft | 208 kts | 63° |
| 2026-05-08 15:46 | 49.89636 | 11.29565 | 17035 ft | 209 kts | 63° |
| 2026-05-08 15:46 | 49.90262 | 11.31594 | 17036 ft | 209 kts | 63° |
| 2026-05-08 15:47 | 49.90889 | 11.33632 | 17032 ft | 209 kts | 63° |
| 2026-05-08 15:47 | 49.91519 | 11.35675 | 17032 ft | 210 kts | 63° |
| 2026-05-08 15:47 | 49.92149 | 11.37723 | 17031 ft | 210 kts | 63° |
| 2026-05-08 15:47 | 49.92778 | 11.39767 | 17030 ft | 210 kts | 62° |
| 2026-05-08 15:48 | 49.94610 | 11.43199 | 17027 ft | 206 kts | 42° |
| 2026-05-08 15:48 | 49.95626 | 11.44772 | 17030 ft | 206 kts | 42° |
| 2026-05-08 15:48 | 49.96642 | 11.46351 | 17030 ft | 207 kts | 42° |
| 2026-05-08 15:49 | 49.97654 | 11.47933 | 17031 ft | 207 kts | 42° |
| 2026-05-08 15:49 | 49.98668 | 11.49519 | 17032 ft | 207 kts | 42° |
| 2026-05-08 15:49 | 49.99680 | 11.51106 | 17032 ft | 207 kts | 42° |
| 2026-05-08 15:49 | 50.00694 | 11.52696 | 17032 ft | 207 kts | 42° |
| 2026-05-08 15:50 | 50.01708 | 11.54286 | 17035 ft | 207 kts | 42° |
| 2026-05-08 15:50 | 50.02723 | 11.55879 | 17039 ft | 207 kts | 42° |
| 2026-05-08 15:50 | 50.03736 | 11.57470 | 17037 ft | 207 kts | 42° |
| 2026-05-08 15:50 | 50.04749 | 11.59062 | 17038 ft | 207 kts | 42° |
| 2026-05-08 15:51 | 50.05763 | 11.60656 | 17037 ft | 207 kts | 42° |
| 2026-05-08 15:51 | 50.06776 | 11.62249 | 17049 ft | 207 kts | 42° |
| 2026-05-08 15:51 | 50.07730 | 11.63828 | 17047 ft | 208 kts | 45° |
| 2026-05-08 15:51 | 50.08730 | 11.65480 | 17047 ft | 207 kts | 43° |
| 2026-05-08 15:52 | 50.09714 | 11.67084 | 17050 ft | 207 kts | 44° |
| 2026-05-08 15:52 | 50.10703 | 11.68718 | 17051 ft | 207 kts | 44° |
| 2026-05-08 15:52 | 50.11687 | 11.70356 | 17052 ft | 207 kts | 44° |
| 2026-05-08 15:52 | 50.12670 | 11.71992 | 17053 ft | 207 kts | 44° |
| 2026-05-08 15:53 | 50.13654 | 11.73630 | 17050 ft | 207 kts | 44° |
| 2026-05-08 15:53 | 50.14637 | 11.75267 | 17049 ft | 207 kts | 44° |
| 2026-05-08 15:53 | 50.15621 | 11.76906 | 17050 ft | 207 kts | 44° |
| 2026-05-08 15:53 | 50.16606 | 11.78547 | 17050 ft | 207 kts | 44° |
| 2026-05-08 15:54 | 50.17586 | 11.80182 | 17117 ft | 204 kts | 44° |
| 2026-05-08 15:54 | 50.18552 | 11.81800 | 17123 ft | 205 kts | 45° |
| 2026-05-08 15:54 | 50.19373 | 11.83634 | 17127 ft | 207 kts | 56° |
| 2026-05-08 15:54 | 50.20129 | 11.85548 | 17127 ft | 208 kts | 56° |
| 2026-05-08 15:55 | 50.20881 | 11.87475 | 17125 ft | 208 kts | 56° |
| 2026-05-08 15:55 | 50.22399 | 11.91335 | 17129 ft | 209 kts | 56° |
| 2026-05-08 15:55 | 50.23160 | 11.93270 | 17129 ft | 209 kts | 56° |
| 2026-05-08 15:56 | 50.23920 | 11.95201 | 17124 ft | 209 kts | 56° |
| 2026-05-08 15:56 | 50.24679 | 11.97133 | 17123 ft | 209 kts | 56° |
| 2026-05-08 15:56 | 50.25433 | 11.99070 | 17128 ft | 209 kts | 56° |
| 2026-05-08 15:56 | 50.26196 | 12.00999 | 17135 ft | 209 kts | 56° |
| 2026-05-08 15:57 | 50.27006 | 12.02873 | 17137 ft | 208 kts | 53° |
| 2026-05-08 15:57 | 50.27821 | 12.04744 | 17131 ft | 208 kts | 53° |
| 2026-05-08 15:57 | 50.28635 | 12.06615 | 17134 ft | 208 kts | 53° |
| 2026-05-08 15:57 | 50.29455 | 12.08485 | 17135 ft | 208 kts | 53° |
| 2026-05-08 15:58 | 50.30276 | 12.10355 | 17133 ft | 208 kts | 53° |
| 2026-05-08 15:58 | 50.31096 | 12.12222 | 17134 ft | 208 kts | 53° |
| 2026-05-08 15:58 | 50.31915 | 12.14091 | 17135 ft | 209 kts | 53° |
| 2026-05-08 15:58 | 50.32734 | 12.15960 | 17135 ft | 208 kts | 53° |
| 2026-05-08 15:59 | 50.33554 | 12.17835 | 17138 ft | 208 kts | 53° |
| 2026-05-08 15:59 | 50.34371 | 12.19709 | 17142 ft | 209 kts | 54° |
| 2026-05-08 15:59 | 50.35074 | 12.21701 | 17141 ft | 209 kts | 60° |
| 2026-05-08 15:59 | 50.35754 | 12.23717 | 17146 ft | 209 kts | 60° |
| 2026-05-08 16:00 | 50.36434 | 12.25739 | 17144 ft | 210 kts | 60° |
| 2026-05-08 16:00 | 50.37113 | 12.27758 | 17139 ft | 210 kts | 60° |
| 2026-05-08 16:00 | 50.37784 | 12.29750 | 17138 ft | 210 kts | 60° |
| 2026-05-08 16:00 | 50.38463 | 12.31769 | 17139 ft | 210 kts | 60° |
| 2026-05-08 16:01 | 50.39143 | 12.33792 | 17139 ft | 210 kts | 60° |
| 2026-05-08 16:01 | 50.39822 | 12.35812 | 17135 ft | 209 kts | 60° |
| 2026-05-08 16:01 | 50.40499 | 12.37829 | 17144 ft | 209 kts | 60° |
| 2026-05-08 16:01 | 50.41175 | 12.39847 | 17141 ft | 209 kts | 60° |
| 2026-05-08 16:02 | 50.41851 | 12.41864 | 17146 ft | 209 kts | 60° |
| 2026-05-08 16:02 | 50.42528 | 12.43886 | 17146 ft | 210 kts | 60° |
| 2026-05-08 16:02 | 50.43206 | 12.45913 | 17136 ft | 210 kts | 60° |
| 2026-05-08 16:02 | 50.43884 | 12.47940 | 17138 ft | 210 kts | 60° |
| 2026-05-08 16:03 | 50.44560 | 12.49965 | 17133 ft | 210 kts | 60° |
| 2026-05-08 16:03 | 50.45236 | 12.51992 | 17135 ft | 210 kts | 60° |
| 2026-05-08 16:03 | 50.45913 | 12.54021 | 17134 ft | 210 kts | 60° |
| 2026-05-08 16:03 | 50.46590 | 12.56053 | 17132 ft | 210 kts | 60° |
| 2026-05-08 16:04 | 50.47267 | 12.58086 | 17139 ft | 210 kts | 60° |
| 2026-05-08 16:04 | 50.47942 | 12.60116 | 17137 ft | 210 kts | 60° |
| 2026-05-08 16:04 | 50.48617 | 12.62146 | 17138 ft | 209 kts | 60° |
| 2026-05-08 16:04 | 50.49291 | 12.64176 | 17139 ft | 209 kts | 60° |
| 2026-05-08 16:05 | 50.49965 | 12.66207 | 17094 ft | 212 kts | 60° |
| 2026-05-08 16:05 | 50.50658 | 12.68296 | 16872 ft | 220 kts | 60° |
| 2026-05-08 16:05 | 50.51377 | 12.70468 | 16588 ft | 227 kts | 60° |
| 2026-05-08 16:05 | 50.52113 | 12.72695 | 16284 ft | 232 kts | 60° |
| 2026-05-08 16:06 | 50.52862 | 12.74957 | 15978 ft | 235 kts | 60° |
| 2026-05-08 16:06 | 50.53617 | 12.77242 | 15664 ft | 236 kts | 61° |
| 2026-05-08 16:06 | 50.54375 | 12.79539 | 15350 ft | 237 kts | 61° |
| 2026-05-08 16:06 | 50.55134 | 12.81840 | 15038 ft | 237 kts | 61° |
| 2026-05-08 16:07 | 50.55893 | 12.84145 | 14724 ft | 237 kts | 61° |
| 2026-05-08 16:07 | 50.56651 | 12.86445 | 14407 ft | 236 kts | 61° |
| 2026-05-08 16:07 | 50.57405 | 12.88736 | 14098 ft | 236 kts | 61° |
| 2026-05-08 16:07 | 50.58157 | 12.91026 | 13771 ft | 235 kts | 61° |
| 2026-05-08 16:08 | 50.58903 | 12.93300 | 13447 ft | 233 kts | 61° |
| 2026-05-08 16:08 | 50.59642 | 12.95551 | 13142 ft | 231 kts | 61° |
| 2026-05-08 16:08 | 50.60375 | 12.97788 | 12836 ft | 229 kts | 61° |
| 2026-05-08 16:08 | 50.61104 | 13.00014 | 12545 ft | 228 kts | 60° |
| 2026-05-08 16:09 | 50.61827 | 13.02218 | 12241 ft | 226 kts | 60° |
| 2026-05-08 16:09 | 50.62361 | 13.03617 | 12041 ft | 224 kts | 51° |
| 2026-05-08 16:09 | 50.63900 | 13.05736 | 11648 ft | 218 kts | 26° |
| 2026-05-08 16:09 | 50.65301 | 13.06544 | 11365 ft | 213 kts | 11° |
| 2026-05-08 16:10 | 50.66741 | 13.07064 | 11081 ft | 212 kts | 10° |
| 2026-05-08 16:10 | 50.68177 | 13.07563 | 10801 ft | 211 kts | 10° |
| 2026-05-08 16:10 | 50.69606 | 13.08063 | 10522 ft | 209 kts | 10° |
| 2026-05-08 16:10 | 50.71025 | 13.08565 | 10247 ft | 208 kts | 10° |
| 2026-05-08 16:11 | 50.72436 | 13.09064 | 9964 ft | 207 kts | 10° |
| 2026-05-08 16:11 | 50.73816 | 13.09553 | 9682 ft | 206 kts | 10° |
| 2026-05-08 16:11 | 50.75213 | 13.10049 | 9406 ft | 205 kts | 10° |
| 2026-05-08 16:11 | 50.76621 | 13.10549 | 9134 ft | 205 kts | 10° |
| 2026-05-08 16:12 | 50.77984 | 13.11034 | 8946 ft | 202 kts | 10° |
| 2026-05-08 16:12 | 50.79345 | 13.11517 | 8769 ft | 200 kts | 10° |
| 2026-05-08 16:12 | 50.80696 | 13.11997 | 8591 ft | 198 kts | 10° |
| 2026-05-08 16:12 | 50.82038 | 13.12474 | 8413 ft | 198 kts | 10° |
| 2026-05-08 16:13 | 50.83376 | 13.12950 | 8236 ft | 197 kts | 11° |
| 2026-05-08 16:13 | 50.84283 | 13.13273 | 8113 ft | 198 kts | 11° |
| 2026-05-08 16:13 | 50.85626 | 13.13751 | 7931 ft | 198 kts | 11° |
| 2026-05-08 16:13 | 50.86967 | 13.14231 | 7750 ft | 197 kts | 10° |
| 2026-05-08 16:14 | 50.88293 | 13.14704 | 7577 ft | 194 kts | 10° |
| 2026-05-08 16:14 | 50.89583 | 13.15165 | 7405 ft | 192 kts | 10° |
| 2026-05-08 16:14 | 50.90883 | 13.15628 | 7228 ft | 191 kts | 10° |
| 2026-05-08 16:14 | 50.92179 | 13.16091 | 7057 ft | 191 kts | 11° |
| 2026-05-08 16:15 | 50.93474 | 13.16554 | 6881 ft | 191 kts | 11° |
| 2026-05-08 16:15 | 50.94764 | 13.17016 | 6708 ft | 189 kts | 11° |
| 2026-05-08 16:15 | 50.96040 | 13.17473 | 6533 ft | 188 kts | 11° |
| 2026-05-08 16:15 | 50.97310 | 13.17927 | 6357 ft | 186 kts | 11° |
| 2026-05-08 16:16 | 50.98568 | 13.18378 | 6185 ft | 185 kts | 11° |
| 2026-05-08 16:16 | 50.99821 | 13.18827 | 6017 ft | 184 kts | 10° |
| 2026-05-08 16:16 | 51.01068 | 13.19275 | 5849 ft | 183 kts | 10° |
| 2026-05-08 16:16 | 51.02310 | 13.19721 | 5684 ft | 183 kts | 11° |
| 2026-05-08 16:17 | 51.03552 | 13.20165 | 5513 ft | 183 kts | 11° |
| 2026-05-08 16:17 | 51.04794 | 13.20614 | 5347 ft | 183 kts | 12° |
| 2026-05-08 16:17 | 51.05942 | 13.21411 | 5183 ft | 180 kts | 33° |
| 2026-05-08 16:17 | 51.06776 | 13.22778 | 5168 ft | 166 kts | 57° |
| 2026-05-08 16:18 | 51.07287 | 13.24390 | 5076 ft | 162 kts | 65° |
| 2026-05-08 16:18 | 51.07758 | 13.26008 | 5003 ft | 158 kts | 65° |
| 2026-05-08 16:18 | 51.08210 | 13.27564 | 5003 ft | 153 kts | 65° |
| 2026-05-08 16:18 | 51.08649 | 13.29077 | 5002 ft | 149 kts | 65° |
| 2026-05-08 16:19 | 51.09083 | 13.30569 | 5001 ft | 147 kts | 65° |
| 2026-05-08 16:19 | 51.09510 | 13.32040 | 5000 ft | 146 kts | 65° |
| 2026-05-08 16:19 | 51.09933 | 13.33497 | 4999 ft | 145 kts | 65° |
| 2026-05-08 16:19 | 51.10353 | 13.34947 | 4997 ft | 144 kts | 66° |
| 2026-05-08 16:20 | 51.10538 | 13.36493 | 4995 ft | 143 kts | 94° |
| 2026-05-08 16:20 | 51.10225 | 13.37979 | 4994 ft | 143 kts | 123° |
| 2026-05-08 16:20 | 51.09637 | 13.39257 | 4998 ft | 143 kts | 127° |
| 2026-05-08 16:20 | 51.09033 | 13.40518 | 4998 ft | 143 kts | 127° |
| 2026-05-08 16:21 | 51.08430 | 13.41780 | 4998 ft | 143 kts | 127° |
| 2026-05-08 16:21 | 51.07827 | 13.43042 | 4998 ft | 143 kts | 127° |
| 2026-05-08 16:21 | 51.07079 | 13.44068 | 4994 ft | 144 kts | 154° |
| 2026-05-08 16:21 | 51.06107 | 13.44364 | 4997 ft | 144 kts | 184° |
| 2026-05-08 16:22 | 51.05174 | 13.43836 | 5001 ft | 144 kts | 215° |
| 2026-05-08 16:22 | 51.04401 | 13.42827 | 5001 ft | 144 kts | 220° |
| 2026-05-08 16:22 | 51.03640 | 13.41786 | 5002 ft | 144 kts | 221° |
| 2026-05-08 16:22 | 51.02879 | 13.40744 | 5001 ft | 144 kts | 223° |
| 2026-05-08 16:23 | 51.02097 | 13.39678 | 5002 ft | 154 kts | 221° |
| 2026-05-08 16:23 | 51.01262 | 13.38542 | 5002 ft | 161 kts | 221° |
| 2026-05-08 16:23 | 51.00394 | 13.37363 | 5002 ft | 166 kts | 221° |
| 2026-05-08 16:23 | 50.99509 | 13.36161 | 5002 ft | 169 kts | 221° |
| 2026-05-08 16:24 | 50.98611 | 13.34942 | 5001 ft | 171 kts | 222° |
| 2026-05-08 16:24 | 50.97578 | 13.34011 | 4995 ft | 174 kts | 198° |
| 2026-05-08 16:24 | 50.96371 | 13.33845 | 4944 ft | 179 kts | 174° |
| 2026-05-08 16:24 | 50.95208 | 13.34521 | 4820 ft | 184 kts | 147° |
| 2026-05-08 16:25 | 50.94269 | 13.35941 | 4680 ft | 185 kts | 131° |
| 2026-05-08 16:25 | 50.93441 | 13.37475 | 4537 ft | 186 kts | 130° |
| 2026-05-08 16:25 | 50.92594 | 13.39062 | 4388 ft | 186 kts | 130° |
| 2026-05-08 16:25 | 50.91766 | 13.40607 | 4250 ft | 187 kts | 129° |
| 2026-05-08 16:26 | 50.91161 | 13.42405 | 4105 ft | 185 kts | 105° |
| 2026-05-08 16:26 | 50.91052 | 13.44415 | 3992 ft | 182 kts | 82° |
| 2026-05-08 16:26 | 50.91427 | 13.46276 | 3988 ft | 175 kts | 60° |
| 2026-05-08 16:26 | 50.92182 | 13.47749 | 3993 ft | 171 kts | 43° |
| 2026-05-08 16:27 | 50.93069 | 13.48985 | 3995 ft | 169 kts | 38° |
| 2026-05-08 16:27 | 50.93975 | 13.50163 | 3996 ft | 168 kts | 38° |
| 2026-05-08 16:27 | 50.94869 | 13.51346 | 3991 ft | 158 kts | 39° |
| 2026-05-08 16:27 | 50.95588 | 13.52337 | 3982 ft | 123 kts | 40° |
| 2026-05-08 16:28 | 50.96244 | 13.53229 | 3984 ft | 125 kts | 39° |
| 2026-05-08 16:28 | 50.96898 | 13.54124 | 3983 ft | 124 kts | 39° |
| 2026-05-08 16:28 | 50.97573 | 13.55045 | 3989 ft | 132 kts | 39° |
| 2026-05-08 16:28 | 50.98281 | 13.56014 | 3991 ft | 137 kts | 39° |
| 2026-05-08 16:29 | 50.99010 | 13.57014 | 3992 ft | 140 kts | 40° |
| 2026-05-08 16:29 | 50.99755 | 13.58030 | 3990 ft | 144 kts | 39° |
| 2026-05-08 16:29 | 51.00548 | 13.59114 | 3859 ft | 154 kts | 40° |
| 2026-05-08 16:29 | 51.01361 | 13.60233 | 3658 ft | 156 kts | 40° |
| 2026-05-08 16:30 | 51.02172 | 13.61338 | 3442 ft | 147 kts | 41° |
| 2026-05-08 16:30 | 51.02872 | 13.62301 | 3259 ft | 121 kts | 41° |
| 2026-05-08 16:30 | 51.03494 | 13.63148 | 3102 ft | 118 kts | 41° |
| 2026-05-08 16:30 | 51.04124 | 13.64011 | 2941 ft | 121 kts | 42° |
| 2026-05-08 16:31 | 51.04763 | 13.64887 | 2775 ft | 122 kts | 41° |
| 2026-05-08 16:31 | 51.05407 | 13.65771 | 2605 ft | 123 kts | 42° |
| 2026-05-08 16:31 | 51.06054 | 13.66660 | 2439 ft | 123 kts | 41° |
| 2026-05-08 16:31 | 51.06703 | 13.67553 | 2269 ft | 123 kts | 41° |
| 2026-05-08 16:32 | 51.07353 | 13.68446 | 2096 ft | 123 kts | 40° |
| 2026-05-08 16:32 | 51.08015 | 13.69320 | 1928 ft | 123 kts | 40° |
| 2026-05-08 16:32 | 51.08661 | 13.70223 | 1755 ft | 123 kts | 40° |
| 2026-05-08 16:32 | 51.09315 | 13.71109 | 1550 ft | 123 kts | 41° |
| 2026-05-08 16:33 | 51.09935 | 13.71951 | 1395 ft | 106 kts | 41° |
| 2026-05-08 16:33 | 51.10404 | 13.72623 | 1323 ft | 83 kts | 42° |
| 2026-05-08 16:33 | 51.10835 | 13.73206 | 1190 ft | 82 kts | 43° |
| 2026-05-08 16:33 | 51.11248 | 13.73779 | 1082 ft | 74 kts | 42° |
| 2026-05-08 16:34 | 51.11652 | 13.74341 | 985 ft | 79 kts | 41° |
| 2026-05-08 16:34 | 51.12067 | 13.74916 | 859 ft | 80 kts | 41° |
| 2026-05-08 16:34 | 51.12477 | 13.75484 | 741 ft | 79 kts | 40° |
| 2026-05-08 16:34 | 51.12824 | 13.75963 | 700 ft | 50 kts | 40° |
| 2026-05-08 16:35 | 51.13091 | 13.76328 | 707 ft | 51 kts | 41° |
| 2026-05-08 16:35 | 51.13327 | 13.76651 | 706 ft | 26 kts | 41° |
| 2026-05-08 16:35 | 51.13337 | 13.76802 | 705 ft | 15 kts | 129° |
| 2026-05-08 16:35 | 51.13283 | 13.76902 | 705 ft | 10 kts | 130° |
| 2026-05-08 16:36 | 51.13267 | 13.76932 | 705 ft | 0 kts | 132° |
| 2026-05-08 16:36 | 51.13242 | 13.76970 | 701 ft | 12 kts | 156° |
| 2026-05-08 16:36 | 51.13139 | 13.76872 | 705 ft | 24 kts | 220° |
| 2026-05-08 16:37 | 51.12997 | 13.76676 | 705 ft | 27 kts | 220° |
| 2026-05-08 16:37 | 51.12868 | 13.76498 | 705 ft | 23 kts | 221° |
| 2026-05-08 16:37 | 51.12734 | 13.76316 | 705 ft | 26 kts | 221° |
| 2026-05-08 16:37 | 51.12609 | 13.76143 | 705 ft | 22 kts | 219° |
| 2026-05-08 16:38 | 51.12501 | 13.75994 | 705 ft | 18 kts | 221° |
| 2026-05-08 16:38 | 51.12443 | 13.76009 | 705 ft | 12 kts | 128° |
| 2026-05-08 16:38 | 51.12381 | 13.76053 | 700 ft | 11 kts | 221° |
| 2026-05-08 16:38 | 51.12332 | 13.76037 | 705 ft | 3 kts | 131° |
| 2026-05-08 16:39 | 51.12324 | 13.76027 | 705 ft | 1 kts | 293° |
| 2026-05-08 16:39 | 51.12324 | 13.76026 | 705 ft | 0 kts | 309° |